This is the latest recevied weather packets stored in our database for station/object K1KOF. If no packets are shown the sender has not sent any weather packets the latest 1 day(s).
| Time | Temp. | Humidity | Pressure | Rain* | Wind** | Luminosity | Snow |
|---|---|---|---|---|---|---|---|
| 1777986149 | 18.33° C | 82% | 1027.2 hPa | 0 mm | 1.34 m/s, 233° | 172 W/m² | - |
| 1777985845 | 18.33° C | 83% | 1027.1 hPa | 0 mm | 1.34 m/s, 207° | 243 W/m² | - |
| 1777985542 | 17.78° C | 84% | 1027.4 hPa | 0 mm | 2.24 m/s, 138° | 229 W/m² | - |
| 1777985239 | 17.78° C | 85% | 1027.5 hPa | 0 mm | 0 m/s | 280 W/m² | - |
| 1777984936 | 16.67° C | 87% | 1027.4 hPa | 0 mm | 0 m/s | 153 W/m² | - |
| 1777984631 | 16.11° C | 87% | 1027.4 hPa | 0 mm | 1.34 m/s, 180° | 46 W/m² | - |
| 1777984329 | 16.11° C | 88% | 1027.5 hPa | 0 mm | 0.89 m/s, 191° | 45 W/m² | - |
| 1777984025 | 16.11° C | 88% | 1027.4 hPa | 0 mm | 2.24 m/s, 189° | 43 W/m² | - |
| 1777983722 | 15.56° C | 89% | 1027.5 hPa | 0 mm | 4.02 m/s, 206° | 42 W/m² | - |
| 1777983419 | 15.56° C | 89% | 1027.4 hPa | 0 mm | 0 m/s | 40 W/m² | - |
| 1777983115 | 15° C | 89% | 1027.2 hPa | 0 mm | 1.79 m/s, 107° | 38 W/m² | - |
| 1777982811 | 15° C | 90% | 1027.1 hPa | 0 mm | 2.24 m/s, 193° | 45 W/m² | - |
| 1777982508 | 14.44° C | 92% | 1027 hPa | 0 mm | 1.34 m/s, 180° | 37 W/m² | - |
| 1777982201 | 14.44° C | 94% | 1027 hPa | 0 mm | 1.34 m/s, 104° | 34 W/m² | - |
| 1777981899 | 13.89° C | 97% | 1027 hPa | 0 mm | 0.89 m/s, 53° | 39 W/m² | - |
| 1777981596 | 13.33° C | 97% | 1026.9 hPa | 0 mm | 0.89 m/s, 81° | 34 W/m² | - |
| 1777981292 | 13.33° C | 97% | 1027 hPa | 0 mm | 0.89 m/s, 90° | 29 W/m² | - |
| 1777980989 | 12.78° C | 97% | 1026.9 hPa | 0 mm | 0.45 m/s, 71° | 27 W/m² | - |
| 1777980686 | 12.78° C | 97% | 1026.8 hPa | 0 mm | 0.89 m/s, 85° | 26 W/m² | - |
| 1777980382 | 12.78° C | 98% | 1026.9 hPa | 0 mm | 1.34 m/s, 87° | 24 W/m² | - |
| 1777980080 | 11.67° C | 98% | 1026.9 hPa | 0 mm | 0.45 m/s, 77° | 28 W/m² | - |
| 1777979774 | 11.67° C | 97% | 1026.8 hPa | 0 mm | 0.89 m/s, 55° | 21 W/m² | - |
| 1777979470 | 11.67° C | 97% | 1026.6 hPa | 0 mm | 0.89 m/s, 32° | 18 W/m² | - |
| 1777979167 | 11.67° C | 98% | 1026.7 hPa | 0 mm | 0 m/s | 15 W/m² | - |
| 1777978864 | 11.67° C | 97% | 1026.9 hPa | 0 mm | 1.34 m/s, 90° | 12 W/m² | - |
* Rain latest hour (hover to see other rain measurements)
** Current wind speed in m/s (hover to see current wind gust speed)